Aviation Digital Data Service (ADDS)

Output produced by METARs form (0035 UTC 20 August 2017)
found at http://aviationweather.gov/adds/metars/
 
KHLG 192332Z 2000/2024 24004KT P6SM BKN120 
     FM200500 00000KT P6SM SCT250 
     FM200800 00000KT 2SM BR SKC 
     TEMPO 2009/2012 3/4SM BR BKN003 
     FM201300 00000KT 3SM BR SCT003 
     FM201400 VRB03KT P6SM SCT250